sensor_id;sensor_type;location;lat;lon;timestamp;P1;durP1;ratioP1;P2;durP2;ratioP2
26582;SDS011;14230;45.382;10.998;2023-05-10T00:00:03;8.85;;;7.10;;
26582;SDS011;14230;45.382;10.998;2023-05-10T00:02:38;7.75;;;6.05;;
26582;SDS011;14230;45.382;10.998;2023-05-10T00:05:06;7.38;;;6.43;;
26582;SDS011;14230;45.382;10.998;2023-05-10T00:07:35;11.55;;;6.40;;
26582;SDS011;14230;45.382;10.998;2023-05-10T00:10:02;7.75;;;6.60;;
26582;SDS011;14230;45.382;10.998;2023-05-10T00:12:30;11.02;;;6.70;;
26582;SDS011;14230;45.382;10.998;2023-05-10T00:14:57;7.15;;;6.45;;
26582;SDS011;14230;45.382;10.998;2023-05-10T00:17:25;9.07;;;7.35;;
26582;SDS011;14230;45.382;10.998;2023-05-10T00:19:52;8.25;;;6.95;;
26582;SDS011;14230;45.382;10.998;2023-05-10T00:22:20;9.57;;;7.30;;
26582;SDS011;14230;45.382;10.998;2023-05-10T00:24:47;7.60;;;6.03;;
26582;SDS011;14230;45.382;10.998;2023-05-10T00:27:15;8.77;;;6.95;;
26582;SDS011;14230;45.382;10.998;2023-05-10T00:29:43;6.85;;;4.55;;
26582;SDS011;14230;45.382;10.998;2023-05-10T00:32:10;6.90;;;5.80;;
26582;SDS011;14230;45.382;10.998;2023-05-10T00:34:38;5.20;;;4.70;;
26582;SDS011;14230;45.382;10.998;2023-05-10T00:37:06;13.98;;;4.60;;
26582;SDS011;14230;45.382;10.998;2023-05-10T00:39:33;5.43;;;4.43;;
26582;SDS011;14230;45.382;10.998;2023-05-10T00:42:01;6.68;;;4.35;;
26582;SDS011;14230;45.382;10.998;2023-05-10T00:44:29;6.60;;;4.10;;
26582;SDS011;14230;45.382;10.998;2023-05-10T00:46:57;5.43;;;4.60;;
26582;SDS011;14230;45.382;10.998;2023-05-10T00:49:25;5.93;;;4.60;;
26582;SDS011;14230;45.382;10.998;2023-05-10T00:51:53;5.18;;;4.05;;
26582;SDS011;14230;45.382;10.998;2023-05-10T00:54:21;5.13;;;4.47;;
26582;SDS011;14230;45.382;10.998;2023-05-10T00:56:50;6.65;;;4.28;;
26582;SDS011;14230;45.382;10.998;2023-05-10T00:59:18;4.70;;;3.50;;
26582;SDS011;14230;45.382;10.998;2023-05-10T01:01:46;6.25;;;3.70;;
26582;SDS011;14230;45.382;10.998;2023-05-10T01:04:14;5.03;;;3.50;;
26582;SDS011;14230;45.382;10.998;2023-05-10T01:06:42;4.57;;;3.30;;
26582;SDS011;14230;45.382;10.998;2023-05-10T01:09:10;8.23;;;3.50;;
26582;SDS011;14230;45.382;10.998;2023-05-10T01:11:38;6.25;;;3.63;;
26582;SDS011;14230;45.382;10.998;2023-05-10T01:14:07;3.58;;;3.10;;
26582;SDS011;14230;45.382;10.998;2023-05-10T01:16:36;4.80;;;2.92;;
26582;SDS011;14230;45.382;10.998;2023-05-10T01:19:06;5.88;;;3.03;;
26582;SDS011;14230;45.382;10.998;2023-05-10T01:46:44;5.88;;;3.20;;
26582;SDS011;14230;45.382;10.998;2023-05-10T01:49:24;3.47;;;3.00;;
26582;SDS011;14230;45.382;10.998;2023-05-10T01:51:59;4.03;;;3.13;;
26582;SDS011;14230;45.382;10.998;2023-05-10T01:54:33;5.32;;;2.83;;
26582;SDS011;14230;45.382;10.998;2023-05-10T01:57:03;3.92;;;2.65;;
26582;SDS011;14230;45.382;10.998;2023-05-10T01:59:35;4.13;;;2.63;;
26582;SDS011;14230;45.382;10.998;2023-05-10T02:02:07;6.07;;;2.90;;
26582;SDS011;14230;45.382;10.998;2023-05-10T02:04:39;3.30;;;2.97;;
26582;SDS011;14230;45.382;10.998;2023-05-10T02:07:07;3.70;;;2.60;;
26582;SDS011;14230;45.382;10.998;2023-05-10T02:09:36;5.63;;;3.00;;
26582;SDS011;14230;45.382;10.998;2023-05-10T02:12:05;9.95;;;3.05;;
26582;SDS011;14230;45.382;10.998;2023-05-10T02:14:35;4.15;;;3.42;;
26582;SDS011;14230;45.382;10.998;2023-05-10T02:17:06;3.15;;;2.75;;
26582;SDS011;14230;45.382;10.998;2023-05-10T02:19:36;5.30;;;2.97;;
26582;SDS011;14230;45.382;10.998;2023-05-10T02:22:06;12.27;;;3.03;;
26582;SDS011;14230;45.382;10.998;2023-05-10T02:24:35;6.10;;;3.50;;
26582;SDS011;14230;45.382;10.998;2023-05-10T02:27:04;6.90;;;3.47;;
26582;SDS011;14230;45.382;10.998;2023-05-10T02:29:32;5.00;;;4.20;;
26582;SDS011;14230;45.382;10.998;2023-05-10T02:32:00;5.88;;;3.72;;
26582;SDS011;14230;45.382;10.998;2023-05-10T02:34:29;4.55;;;3.83;;
26582;SDS011;14230;45.382;10.998;2023-05-10T02:36:59;7.60;;;3.67;;
26582;SDS011;14230;45.382;10.998;2023-05-10T02:39:28;5.75;;;3.90;;
26582;SDS011;14230;45.382;10.998;2023-05-10T02:41:58;7.03;;;4.15;;
26582;SDS011;14230;45.382;10.998;2023-05-10T02:44:27;8.40;;;4.78;;
26582;SDS011;14230;45.382;10.998;2023-05-10T02:46:58;7.18;;;4.60;;
26582;SDS011;14230;45.382;10.998;2023-05-10T02:49:25;8.90;;;4.93;;
26582;SDS011;14230;45.382;10.998;2023-05-10T02:51:55;6.20;;;5.15;;
26582;SDS011;14230;45.382;10.998;2023-05-10T02:54:27;6.88;;;5.13;;
26582;SDS011;14230;45.382;10.998;2023-05-10T02:57:00;7.80;;;5.88;;
26582;SDS011;14230;45.382;10.998;2023-05-10T02:59:31;6.53;;;4.88;;
26582;SDS011;14230;45.382;10.998;2023-05-10T03:01:59;10.05;;;5.25;;
26582;SDS011;14230;45.382;10.998;2023-05-10T03:04:27;6.88;;;5.53;;
26582;SDS011;14230;45.382;10.998;2023-05-10T03:06:56;7.18;;;5.63;;
26582;SDS011;14230;45.382;10.998;2023-05-10T03:09:24;9.00;;;5.85;;
26582;SDS011;14230;45.382;10.998;2023-05-10T03:12:04;6.70;;;5.20;;
26582;SDS011;14230;45.382;10.998;2023-05-10T03:14:46;6.05;;;5.13;;
26582;SDS011;14230;45.382;10.998;2023-05-10T03:17:47;8.85;;;5.65;;
26582;SDS011;14230;45.382;10.998;2023-05-10T03:20:26;6.63;;;5.32;;
26582;SDS011;14230;45.382;10.998;2023-05-10T03:23:00;7.03;;;5.72;;
26582;SDS011;14230;45.382;10.998;2023-05-10T03:25:34;9.63;;;5.30;;
26582;SDS011;14230;45.382;10.998;2023-05-10T03:28:04;6.50;;;5.80;;
26582;SDS011;14230;45.382;10.998;2023-05-10T03:30:32;8.65;;;5.78;;
26582;SDS011;14230;45.382;10.998;2023-05-10T03:33:05;9.32;;;5.97;;
26582;SDS011;14230;45.382;10.998;2023-05-10T03:35:37;6.53;;;5.80;;
26582;SDS011;14230;45.382;10.998;2023-05-10T03:38:05;6.88;;;6.13;;
26582;SDS011;14230;45.382;10.998;2023-05-10T03:40:32;7.80;;;6.00;;
26582;SDS011;14230;45.382;10.998;2023-05-10T03:43:00;6.88;;;6.18;;
26582;SDS011;14230;45.382;10.998;2023-05-10T03:45:27;8.75;;;6.03;;
26582;SDS011;14230;45.382;10.998;2023-05-10T03:47:55;7.32;;;5.93;;
26582;SDS011;14230;45.382;10.998;2023-05-10T03:50:24;6.57;;;5.88;;
26582;SDS011;14230;45.382;10.998;2023-05-10T03:52:53;6.93;;;5.90;;
26582;SDS011;14230;45.382;10.998;2023-05-10T03:55:20;16.48;;;8.38;;
26582;SDS011;14230;45.382;10.998;2023-05-10T03:57:50;8.68;;;6.15;;
26582;SDS011;14230;45.382;10.998;2023-05-10T04:00:18;9.30;;;6.45;;
26582;SDS011;14230;45.382;10.998;2023-05-10T04:02:49;8.38;;;5.75;;
26582;SDS011;14230;45.382;10.998;2023-05-10T04:05:19;9.77;;;6.05;;
26582;SDS011;14230;45.382;10.998;2023-05-10T04:07:46;8.18;;;6.05;;
26582;SDS011;14230;45.382;10.998;2023-05-10T04:10:16;6.60;;;5.95;;
26582;SDS011;14230;45.382;10.998;2023-05-10T04:12:43;8.40;;;7.07;;
26582;SDS011;14230;45.382;10.998;2023-05-10T04:15:11;7.50;;;6.90;;
26582;SDS011;14230;45.382;10.998;2023-05-10T04:17:41;7.07;;;5.55;;
26582;SDS011;14230;45.382;10.998;2023-05-10T04:20:11;8.93;;;6.35;;
26582;SDS011;14230;45.382;10.998;2023-05-10T04:22:40;10.10;;;6.55;;
26582;SDS011;14230;45.382;10.998;2023-05-10T04:25:08;8.02;;;6.07;;
26582;SDS011;14230;45.382;10.998;2023-05-10T04:27:35;9.40;;;6.93;;
26582;SDS011;14230;45.382;10.998;2023-05-10T04:30:03;8.07;;;6.13;;
26582;SDS011;14230;45.382;10.998;2023-05-10T04:32:31;8.30;;;5.82;;
26582;SDS011;14230;45.382;10.998;2023-05-10T04:34:59;9.00;;;6.57;;
26582;SDS011;14230;45.382;10.998;2023-05-10T04:37:26;8.48;;;6.38;;
26582;SDS011;14230;45.382;10.998;2023-05-10T04:39:54;8.45;;;5.75;;
26582;SDS011;14230;45.382;10.998;2023-05-10T04:42:21;9.95;;;6.22;;
26582;SDS011;14230;45.382;10.998;2023-05-10T04:44:48;8.75;;;6.93;;
26582;SDS011;14230;45.382;10.998;2023-05-10T04:47:16;8.32;;;6.50;;
26582;SDS011;14230;45.382;10.998;2023-05-10T04:49:43;6.57;;;5.88;;
26582;SDS011;14230;45.382;10.998;2023-05-10T04:52:11;13.77;;;7.03;;
26582;SDS011;14230;45.382;10.998;2023-05-10T04:54:38;8.45;;;6.82;;
26582;SDS011;14230;45.382;10.998;2023-05-10T04:57:05;10.13;;;6.25;;
26582;SDS011;14230;45.382;10.998;2023-05-10T04:59:35;10.25;;;6.32;;
26582;SDS011;14230;45.382;10.998;2023-05-10T05:02:03;12.45;;;6.90;;
26582;SDS011;14230;45.382;10.998;2023-05-10T05:04:31;7.85;;;6.13;;
26582;SDS011;14230;45.382;10.998;2023-05-10T05:06:59;8.95;;;6.30;;
26582;SDS011;14230;45.382;10.998;2023-05-10T05:09:26;7.28;;;5.65;;
26582;SDS011;14230;45.382;10.998;2023-05-10T05:11:54;7.10;;;6.40;;
26582;SDS011;14230;45.382;10.998;2023-05-10T05:14:21;7.55;;;5.97;;
26582;SDS011;14230;45.382;10.998;2023-05-10T05:16:49;7.78;;;5.63;;
26582;SDS011;14230;45.382;10.998;2023-05-10T05:19:16;8.60;;;6.32;;
26582;SDS011;14230;45.382;10.998;2023-05-10T05:21:43;9.60;;;6.28;;
26582;SDS011;14230;45.382;10.998;2023-05-10T05:24:11;5.88;;;5.28;;
26582;SDS011;14230;45.382;10.998;2023-05-10T05:26:39;7.13;;;5.43;;
26582;SDS011;14230;45.382;10.998;2023-05-10T05:29:06;7.00;;;5.45;;
26582;SDS011;14230;45.382;10.998;2023-05-10T05:31:34;7.82;;;6.15;;
26582;SDS011;14230;45.382;10.998;2023-05-10T05:34:01;6.15;;;5.38;;
26582;SDS011;14230;45.382;10.998;2023-05-10T05:36:29;7.72;;;5.45;;
26582;SDS011;14230;45.382;10.998;2023-05-10T05:38:59;26.10;;;6.63;;
26582;SDS011;14230;45.382;10.998;2023-05-10T05:41:26;9.30;;;5.55;;
26582;SDS011;14230;45.382;10.998;2023-05-10T05:43:54;7.93;;;5.50;;
26582;SDS011;14230;45.382;10.998;2023-05-10T05:46:21;5.25;;;4.70;;
26582;SDS011;14230;45.382;10.998;2023-05-10T05:48:49;7.05;;;5.15;;
26582;SDS011;14230;45.382;10.998;2023-05-10T05:51:16;8.18;;;4.90;;
26582;SDS011;14230;45.382;10.998;2023-05-10T05:53:44;6.03;;;5.38;;
26582;SDS011;14230;45.382;10.998;2023-05-10T05:56:12;5.15;;;4.65;;
26582;SDS011;14230;45.382;10.998;2023-05-10T05:58:39;6.50;;;5.07;;
26582;SDS011;14230;45.382;10.998;2023-05-10T06:01:06;5.63;;;4.15;;
26582;SDS011;14230;45.382;10.998;2023-05-10T06:03:34;6.20;;;5.07;;
26582;SDS011;14230;45.382;10.998;2023-05-10T06:06:04;9.55;;;4.78;;
26582;SDS011;14230;45.382;10.998;2023-05-10T06:08:32;7.75;;;4.45;;
26582;SDS011;14230;45.382;10.998;2023-05-10T06:11:00;7.22;;;4.78;;
26582;SDS011;14230;45.382;10.998;2023-05-10T06:13:28;8.13;;;4.85;;
26582;SDS011;14230;45.382;10.998;2023-05-10T06:15:59;8.20;;;4.90;;
26582;SDS011;14230;45.382;10.998;2023-05-10T06:18:27;6.03;;;4.10;;
26582;SDS011;14230;45.382;10.998;2023-05-10T06:20:54;10.52;;;4.78;;
26582;SDS011;14230;45.382;10.998;2023-05-10T06:23:22;8.32;;;4.68;;
26582;SDS011;14230;45.382;10.998;2023-05-10T06:25:49;8.25;;;5.20;;
26582;SDS011;14230;45.382;10.998;2023-05-10T06:28:17;5.30;;;4.78;;
26582;SDS011;14230;45.382;10.998;2023-05-10T06:30:44;6.60;;;4.50;;
26582;SDS011;14230;45.382;10.998;2023-05-10T06:33:12;4.78;;;4.30;;
26582;SDS011;14230;45.382;10.998;2023-05-10T06:35:39;7.53;;;3.88;;
26582;SDS011;14230;45.382;10.998;2023-05-10T06:38:07;7.03;;;4.80;;
26582;SDS011;14230;45.382;10.998;2023-05-10T06:40:34;6.93;;;3.67;;
26582;SDS011;14230;45.382;10.998;2023-05-10T06:43:02;5.13;;;4.63;;
26582;SDS011;14230;45.382;10.998;2023-05-10T06:45:30;7.35;;;4.50;;
26582;SDS011;14230;45.382;10.998;2023-05-10T06:47:57;9.35;;;4.50;;
26582;SDS011;14230;45.382;10.998;2023-05-10T06:50:25;4.53;;;4.05;;
26582;SDS011;14230;45.382;10.998;2023-05-10T06:52:54;6.05;;;4.45;;
26582;SDS011;14230;45.382;10.998;2023-05-10T06:55:22;5.82;;;4.65;;
26582;SDS011;14230;45.382;10.998;2023-05-10T06:57:50;4.95;;;4.45;;
26582;SDS011;14230;45.382;10.998;2023-05-10T07:00:18;5.28;;;4.32;;
26582;SDS011;14230;45.382;10.998;2023-05-10T07:02:46;7.05;;;5.00;;
26582;SDS011;14230;45.382;10.998;2023-05-10T07:05:14;5.82;;;4.60;;
26582;SDS011;14230;45.382;10.998;2023-05-10T07:07:42;7.50;;;5.18;;
26582;SDS011;14230;45.382;10.998;2023-05-10T07:10:09;6.88;;;5.22;;
26582;SDS011;14230;45.382;10.998;2023-05-10T07:12:37;6.88;;;5.03;;
26582;SDS011;14230;45.382;10.998;2023-05-10T07:15:05;6.78;;;5.20;;
26582;SDS011;14230;45.382;10.998;2023-05-10T07:17:33;7.95;;;5.10;;
26582;SDS011;14230;45.382;10.998;2023-05-10T07:20:00;5.90;;;5.30;;
26582;SDS011;14230;45.382;10.998;2023-05-10T07:22:28;6.93;;;5.30;;
26582;SDS011;14230;45.382;10.998;2023-05-10T07:24:55;7.05;;;5.30;;
26582;SDS011;14230;45.382;10.998;2023-05-10T07:27:23;6.80;;;4.70;;
26582;SDS011;14230;45.382;10.998;2023-05-10T07:29:50;6.85;;;5.72;;
26582;SDS011;14230;45.382;10.998;2023-05-10T07:32:18;7.70;;;6.63;;
26582;SDS011;14230;45.382;10.998;2023-05-10T07:34:45;7.88;;;5.35;;
26582;SDS011;14230;45.382;10.998;2023-05-10T07:37:12;6.78;;;5.57;;
26582;SDS011;14230;45.382;10.998;2023-05-10T07:39:40;7.93;;;5.88;;
26582;SDS011;14230;45.382;10.998;2023-05-10T07:42:07;10.23;;;6.07;;
26582;SDS011;14230;45.382;10.998;2023-05-10T07:44:35;8.07;;;5.55;;
26582;SDS011;14230;45.382;10.998;2023-05-10T07:47:02;7.55;;;6.32;;
26582;SDS011;14230;45.382;10.998;2023-05-10T07:49:30;9.48;;;5.53;;
26582;SDS011;14230;45.382;10.998;2023-05-10T07:51:57;10.45;;;6.50;;
26582;SDS011;14230;45.382;10.998;2023-05-10T07:54:25;7.63;;;5.55;;
26582;SDS011;14230;45.382;10.998;2023-05-10T07:56:52;10.15;;;5.63;;
26582;SDS011;14230;45.382;10.998;2023-05-10T07:59:20;7.97;;;6.15;;
26582;SDS011;14230;45.382;10.998;2023-05-10T08:01:48;7.15;;;5.32;;
26582;SDS011;14230;45.382;10.998;2023-05-10T08:04:15;7.05;;;5.53;;
26582;SDS011;14230;45.382;10.998;2023-05-10T08:06:42;7.07;;;5.40;;
26582;SDS011;14230;45.382;10.998;2023-05-10T08:09:10;7.93;;;5.68;;
26582;SDS011;14230;45.382;10.998;2023-05-10T08:11:37;7.70;;;5.45;;
26582;SDS011;14230;45.382;10.998;2023-05-10T08:14:05;9.82;;;7.22;;
26582;SDS011;14230;45.382;10.998;2023-05-10T08:16:32;13.57;;;8.68;;
26582;SDS011;14230;45.382;10.998;2023-05-10T08:19:01;12.07;;;6.72;;
26582;SDS011;14230;45.382;10.998;2023-05-10T08:21:28;11.43;;;6.18;;
26582;SDS011;14230;45.382;10.998;2023-05-10T08:23:57;9.80;;;6.18;;
26582;SDS011;14230;45.382;10.998;2023-05-10T08:26:25;9.23;;;5.85;;
26582;SDS011;14230;45.382;10.998;2023-05-10T08:28:54;14.93;;;7.60;;
26582;SDS011;14230;45.382;10.998;2023-05-10T08:31:22;14.95;;;7.88;;
26582;SDS011;14230;45.382;10.998;2023-05-10T08:33:50;11.52;;;7.90;;
26582;SDS011;14230;45.382;10.998;2023-05-10T08:36:19;17.13;;;9.48;;
26582;SDS011;14230;45.382;10.998;2023-05-10T08:38:51;28.67;;;10.45;;
26582;SDS011;14230;45.382;10.998;2023-05-10T08:41:20;24.70;;;7.47;;
26582;SDS011;14230;45.382;10.998;2023-05-10T08:43:49;26.60;;;8.68;;
26582;SDS011;14230;45.382;10.998;2023-05-10T08:46:17;23.98;;;8.60;;
26582;SDS011;14230;45.382;10.998;2023-05-10T08:48:47;14.68;;;6.70;;
26582;SDS011;14230;45.382;10.998;2023-05-10T08:51:17;15.77;;;7.03;;
26582;SDS011;14230;45.382;10.998;2023-05-10T08:53:45;29.67;;;10.38;;
26582;SDS011;14230;45.382;10.998;2023-05-10T08:56:13;19.15;;;7.07;;
26582;SDS011;14230;45.382;10.998;2023-05-10T08:58:42;13.60;;;5.60;;
26582;SDS011;14230;45.382;10.998;2023-05-10T09:01:10;8.73;;;4.85;;
26582;SDS011;14230;45.382;10.998;2023-05-10T09:03:39;8.40;;;5.28;;
26582;SDS011;14230;45.382;10.998;2023-05-10T09:06:07;10.52;;;5.13;;
26582;SDS011;14230;45.382;10.998;2023-05-10T09:08:34;11.82;;;5.97;;
26582;SDS011;14230;45.382;10.998;2023-05-10T09:11:04;6.70;;;5.43;;
26582;SDS011;14230;45.382;10.998;2023-05-10T09:13:32;8.45;;;5.18;;
26582;SDS011;14230;45.382;10.998;2023-05-10T09:16:00;7.15;;;4.90;;
26582;SDS011;14230;45.382;10.998;2023-05-10T09:18:46;8.73;;;5.40;;
26582;SDS011;14230;45.382;10.998;2023-05-10T09:21:14;11.63;;;6.35;;
26582;SDS011;14230;45.382;10.998;2023-05-10T09:23:44;9.38;;;5.15;;
26582;SDS011;14230;45.382;10.998;2023-05-10T09:26:14;17.17;;;6.03;;
26582;SDS011;14230;45.382;10.998;2023-05-10T09:28:52;11.98;;;5.78;;
26582;SDS011;14230;45.382;10.998;2023-05-10T09:31:22;18.70;;;7.05;;
26582;SDS011;14230;45.382;10.998;2023-05-10T09:33:52;16.08;;;5.43;;
26582;SDS011;14230;45.382;10.998;2023-05-10T09:36:20;6.20;;;5.22;;
26582;SDS011;14230;45.382;10.998;2023-05-10T09:38:48;7.25;;;5.15;;
26582;SDS011;14230;45.382;10.998;2023-05-10T09:41:19;9.55;;;6.80;;
26582;SDS011;14230;45.382;10.998;2023-05-10T09:43:50;10.60;;;7.03;;
26582;SDS011;14230;45.382;10.998;2023-05-10T09:46:22;9.20;;;6.13;;
26582;SDS011;14230;45.382;10.998;2023-05-10T09:48:51;8.63;;;5.32;;
26582;SDS011;14230;45.382;10.998;2023-05-10T09:51:22;6.10;;;5.47;;
26582;SDS011;14230;45.382;10.998;2023-05-10T09:56:37;6.78;;;4.63;;
26582;SDS011;14230;45.382;10.998;2023-05-10T09:59:09;6.88;;;4.22;;
26582;SDS011;14230;45.382;10.998;2023-05-10T10:01:38;9.82;;;4.85;;
26582;SDS011;14230;45.382;10.998;2023-05-10T10:04:06;5.65;;;4.82;;
26582;SDS011;14230;45.382;10.998;2023-05-10T10:06:36;6.00;;;4.38;;
26582;SDS011;14230;45.382;10.998;2023-05-10T10:09:05;6.00;;;4.55;;
26582;SDS011;14230;45.382;10.998;2023-05-10T10:11:36;4.43;;;4.03;;
26582;SDS011;14230;45.382;10.998;2023-05-10T10:14:05;7.03;;;4.72;;
26582;SDS011;14230;45.382;10.998;2023-05-10T10:16:32;7.30;;;4.70;;
26582;SDS011;14230;45.382;10.998;2023-05-10T10:19:00;6.70;;;4.47;;
26582;SDS011;14230;45.382;10.998;2023-05-10T10:21:27;8.30;;;4.88;;
26582;SDS011;14230;45.382;10.998;2023-05-10T10:23:55;9.25;;;5.22;;
26582;SDS011;14230;45.382;10.998;2023-05-10T10:26:22;8.25;;;4.47;;
26582;SDS011;14230;45.382;10.998;2023-05-10T10:31:57;4.65;;;3.83;;
26582;SDS011;14230;45.382;10.998;2023-05-10T10:34:47;7.85;;;4.78;;
26582;SDS011;14230;45.382;10.998;2023-05-10T10:37:15;5.68;;;4.13;;
26582;SDS011;14230;45.382;10.998;2023-05-10T10:39:43;8.50;;;4.93;;
26582;SDS011;14230;45.382;10.998;2023-05-10T10:42:10;6.50;;;3.90;;
26582;SDS011;14230;45.382;10.998;2023-05-10T10:44:38;6.10;;;4.68;;
26582;SDS011;14230;45.382;10.998;2023-05-10T10:55:07;7.82;;;5.07;;
26582;SDS011;14230;45.382;10.998;2023-05-10T10:57:49;7.13;;;5.57;;
26582;SDS011;14230;45.382;10.998;2023-05-10T11:02:56;13.77;;;6.30;;
26582;SDS011;14230;45.382;10.998;2023-05-10T11:13:40;6.05;;;4.93;;
26582;SDS011;14230;45.382;10.998;2023-05-10T11:19:04;7.43;;;4.03;;
26582;SDS011;14230;45.382;10.998;2023-05-10T11:21:47;6.53;;;4.63;;
26582;SDS011;14230;45.382;10.998;2023-05-10T11:24:30;5.47;;;4.38;;
26582;SDS011;14230;45.382;10.998;2023-05-10T11:26:57;5.07;;;4.57;;
26582;SDS011;14230;45.382;10.998;2023-05-10T11:29:25;7.07;;;4.30;;
26582;SDS011;14230;45.382;10.998;2023-05-10T11:31:53;5.13;;;4.25;;
26582;SDS011;14230;45.382;10.998;2023-05-10T11:34:25;9.60;;;4.45;;
26582;SDS011;14230;45.382;10.998;2023-05-10T11:36:57;9.65;;;4.85;;
26582;SDS011;14230;45.382;10.998;2023-05-10T11:39:28;6.78;;;3.90;;
26582;SDS011;14230;45.382;10.998;2023-05-10T11:44:31;8.77;;;5.25;;
26582;SDS011;14230;45.382;10.998;2023-05-10T11:47:00;7.35;;;5.10;;
26582;SDS011;14230;45.382;10.998;2023-05-10T11:49:28;7.88;;;4.55;;
26582;SDS011;14230;45.382;10.998;2023-05-10T11:52:06;5.65;;;4.65;;
26582;SDS011;14230;45.382;10.998;2023-05-10T11:54:34;5.18;;;4.43;;
26582;SDS011;14230;45.382;10.998;2023-05-10T11:57:02;5.88;;;4.65;;
26582;SDS011;14230;45.382;10.998;2023-05-10T11:59:30;6.18;;;4.70;;
26582;SDS011;14230;45.382;10.998;2023-05-10T12:01:57;11.20;;;4.88;;
26582;SDS011;14230;45.382;10.998;2023-05-10T12:04:25;5.82;;;4.70;;
26582;SDS011;14230;45.382;10.998;2023-05-10T12:06:56;7.47;;;4.93;;
26582;SDS011;14230;45.382;10.998;2023-05-10T12:09:23;7.70;;;4.07;;
26582;SDS011;14230;45.382;10.998;2023-05-10T12:12:09;6.55;;;4.60;;
26582;SDS011;14230;45.382;10.998;2023-05-10T12:14:37;6.18;;;4.50;;
26582;SDS011;14230;45.382;10.998;2023-05-10T12:17:05;5.85;;;5.25;;
26582;SDS011;14230;45.382;10.998;2023-05-10T12:19:38;6.35;;;4.80;;
26582;SDS011;14230;45.382;10.998;2023-05-10T12:22:08;7.13;;;5.35;;
26582;SDS011;14230;45.382;10.998;2023-05-10T12:24:38;9.07;;;5.80;;
26582;SDS011;14230;45.382;10.998;2023-05-10T12:27:07;5.80;;;5.05;;
26582;SDS011;14230;45.382;10.998;2023-05-10T12:29:35;5.82;;;4.90;;
26582;SDS011;14230;45.382;10.998;2023-05-10T12:32:03;9.65;;;6.22;;
26582;SDS011;14230;45.382;10.998;2023-05-10T12:37:03;14.20;;;8.65;;
26582;SDS011;14230;45.382;10.998;2023-05-10T12:39:38;13.88;;;6.93;;
26582;SDS011;14230;45.382;10.998;2023-05-10T12:42:09;11.15;;;6.18;;
26582;SDS011;14230;45.382;10.998;2023-05-10T12:44:38;9.95;;;7.22;;
26582;SDS011;14230;45.382;10.998;2023-05-10T12:47:05;8.77;;;5.15;;
26582;SDS011;14230;45.382;10.998;2023-05-10T12:49:33;6.68;;;4.95;;
26582;SDS011;14230;45.382;10.998;2023-05-10T12:52:01;6.70;;;4.68;;
26582;SDS011;14230;45.382;10.998;2023-05-10T12:54:28;6.68;;;5.00;;
26582;SDS011;14230;45.382;10.998;2023-05-10T12:56:56;8.18;;;5.68;;
26582;SDS011;14230;45.382;10.998;2023-05-10T12:59:23;9.25;;;7.55;;
26582;SDS011;14230;45.382;10.998;2023-05-10T13:01:51;6.78;;;4.82;;
26582;SDS011;14230;45.382;10.998;2023-05-10T13:04:18;5.40;;;4.38;;
26582;SDS011;14230;45.382;10.998;2023-05-10T13:06:45;5.28;;;4.78;;
26582;SDS011;14230;45.382;10.998;2023-05-10T13:09:13;6.95;;;5.38;;
26582;SDS011;14230;45.382;10.998;2023-05-10T13:11:41;7.25;;;5.97;;
26582;SDS011;14230;45.382;10.998;2023-05-10T13:14:08;8.52;;;5.72;;
26582;SDS011;14230;45.382;10.998;2023-05-10T13:16:36;6.30;;;4.47;;
26582;SDS011;14230;45.382;10.998;2023-05-10T13:19:03;6.45;;;5.43;;
26582;SDS011;14230;45.382;10.998;2023-05-10T13:21:31;11.45;;;9.07;;
26582;SDS011;14230;45.382;10.998;2023-05-10T13:23:58;14.65;;;10.40;;
26582;SDS011;14230;45.382;10.998;2023-05-10T13:26:27;22.35;;;14.85;;
26582;SDS011;14230;45.382;10.998;2023-05-10T13:28:54;9.45;;;6.55;;
26582;SDS011;14230;45.382;10.998;2023-05-10T13:31:22;7.63;;;5.55;;
26582;SDS011;14230;45.382;10.998;2023-05-10T13:33:49;9.27;;;5.20;;
26582;SDS011;14230;45.382;10.998;2023-05-10T13:36:17;6.15;;;4.75;;
26582;SDS011;14230;45.382;10.998;2023-05-10T13:38:45;7.53;;;5.40;;
26582;SDS011;14230;45.382;10.998;2023-05-10T13:41:12;7.05;;;4.93;;
26582;SDS011;14230;45.382;10.998;2023-05-10T13:43:40;8.15;;;4.82;;
26582;SDS011;14230;45.382;10.998;2023-05-10T13:46:07;6.72;;;4.30;;
26582;SDS011;14230;45.382;10.998;2023-05-10T13:48:35;6.15;;;4.97;;
26582;SDS011;14230;45.382;10.998;2023-05-10T13:51:05;9.65;;;5.40;;
26582;SDS011;14230;45.382;10.998;2023-05-10T13:53:32;16.10;;;6.20;;
26582;SDS011;14230;45.382;10.998;2023-05-10T13:56:00;25.23;;;6.95;;
26582;SDS011;14230;45.382;10.998;2023-05-10T13:58:28;11.32;;;5.32;;
26582;SDS011;14230;45.382;10.998;2023-05-10T14:00:56;6.43;;;5.35;;
26582;SDS011;14230;45.382;10.998;2023-05-10T14:03:23;9.57;;;5.95;;
26582;SDS011;14230;45.382;10.998;2023-05-10T14:05:51;7.43;;;5.03;;
26582;SDS011;14230;45.382;10.998;2023-05-10T14:08:18;7.65;;;4.78;;
26582;SDS011;14230;45.382;10.998;2023-05-10T14:10:46;7.10;;;5.38;;
26582;SDS011;14230;45.382;10.998;2023-05-10T14:13:15;6.55;;;5.25;;
26582;SDS011;14230;45.382;10.998;2023-05-10T14:15:42;8.40;;;5.85;;
26582;SDS011;14230;45.382;10.998;2023-05-10T14:18:10;7.45;;;5.63;;
26582;SDS011;14230;45.382;10.998;2023-05-10T14:20:38;6.50;;;5.55;;
26582;SDS011;14230;45.382;10.998;2023-05-10T14:23:05;6.45;;;5.60;;
26582;SDS011;14230;45.382;10.998;2023-05-10T14:25:35;8.45;;;6.05;;
26582;SDS011;14230;45.382;10.998;2023-05-10T14:28:02;8.15;;;5.18;;
26582;SDS011;14230;45.382;10.998;2023-05-10T14:30:30;7.25;;;4.68;;
26582;SDS011;14230;45.382;10.998;2023-05-10T14:32:59;7.70;;;5.10;;
26582;SDS011;14230;45.382;10.998;2023-05-10T14:35:28;5.32;;;4.68;;
26582;SDS011;14230;45.382;10.998;2023-05-10T14:37:57;6.60;;;4.85;;
26582;SDS011;14230;45.382;10.998;2023-05-10T14:40:25;5.70;;;4.40;;
26582;SDS011;14230;45.382;10.998;2023-05-10T14:42:52;5.40;;;4.07;;
26582;SDS011;14230;45.382;10.998;2023-05-10T14:45:20;5.53;;;5.03;;
26582;SDS011;14230;45.382;10.998;2023-05-10T14:47:48;5.72;;;4.03;;
26582;SDS011;14230;45.382;10.998;2023-05-10T14:50:16;4.90;;;3.97;;
26582;SDS011;14230;45.382;10.998;2023-05-10T14:53:01;5.18;;;3.75;;
26582;SDS011;14230;45.382;10.998;2023-05-10T14:55:28;6.97;;;4.47;;
26582;SDS011;14230;45.382;10.998;2023-05-10T14:57:56;5.22;;;4.28;;
26582;SDS011;14230;45.382;10.998;2023-05-10T15:00:25;6.72;;;5.35;;
26582;SDS011;14230;45.382;10.998;2023-05-10T15:02:53;7.25;;;3.90;;
26582;SDS011;14230;45.382;10.998;2023-05-10T15:05:21;4.82;;;4.00;;
26582;SDS011;14230;45.382;10.998;2023-05-10T15:07:49;6.53;;;4.28;;
26582;SDS011;14230;45.382;10.998;2023-05-10T15:10:17;5.72;;;3.80;;
26582;SDS011;14230;45.382;10.998;2023-05-10T15:12:45;7.90;;;3.70;;
26582;SDS011;14230;45.382;10.998;2023-05-10T15:15:12;3.22;;;2.88;;
26582;SDS011;14230;45.382;10.998;2023-05-10T15:17:40;5.38;;;3.60;;
26582;SDS011;14230;45.382;10.998;2023-05-10T15:20:07;4.00;;;3.60;;
26582;SDS011;14230;45.382;10.998;2023-05-10T15:22:37;6.88;;;4.07;;
26582;SDS011;14230;45.382;10.998;2023-05-10T15:25:05;5.28;;;3.83;;
26582;SDS011;14230;45.382;10.998;2023-05-10T15:27:33;6.70;;;4.50;;
26582;SDS011;14230;45.382;10.998;2023-05-10T15:30:00;8.52;;;5.82;;
26582;SDS011;14230;45.382;10.998;2023-05-10T15:32:28;6.47;;;5.35;;
26582;SDS011;14230;45.382;10.998;2023-05-10T15:34:58;5.85;;;5.05;;
26582;SDS011;14230;45.382;10.998;2023-05-10T15:37:26;8.77;;;5.22;;
26582;SDS011;14230;45.382;10.998;2023-05-10T15:39:54;5.95;;;4.40;;